createdAt,value
2018-07-07T00:00:56.249Z,68.99
2018-07-07T00:01:56.278Z,68.41
2018-07-07T00:02:56.289Z,68.80
2018-07-07T00:03:56.298Z,68.70
2018-07-07T00:04:56.320Z,69.37
2018-07-07T00:05:56.352Z,69.09
2018-07-07T00:06:56.354Z,69.47
2018-07-07T00:07:56.373Z,69.56
2018-07-07T00:08:56.394Z,70.20
2018-07-07T00:09:56.415Z,70.67
2018-07-07T00:10:56.434Z,70.33
2018-07-07T00:11:56.479Z,70.77
2018-07-07T00:12:56.474Z,70.87
2018-07-07T00:13:56.487Z,71.06
2018-07-07T00:14:56.529Z,70.87
2018-07-07T00:15:56.531Z,71.44
2018-07-07T00:16:56.553Z,72.93
2018-07-07T00:17:56.562Z,73.69
2018-07-07T00:18:56.584Z,72.55
2018-07-07T00:19:56.606Z,72.93
2018-07-07T00:20:56.619Z,72.93
2018-07-07T00:21:56.642Z,72.74
2018-07-07T00:22:56.659Z,74.08
2018-07-07T00:23:56.684Z,74.65
2018-07-07T00:24:56.696Z,74.42
2018-07-07T00:25:56.731Z,74.99
2018-07-07T00:26:56.732Z,75.47
2018-07-07T00:27:56.754Z,75.47
2018-07-07T00:28:56.778Z,74.90
2018-07-07T00:29:56.788Z,75.18
2018-07-07T00:30:56.808Z,74.80
2018-07-07T00:31:56.831Z,74.37
2018-07-07T00:32:56.849Z,73.98
2018-07-07T00:33:56.870Z,73.69
2018-07-07T00:34:56.883Z,73.79
2018-07-07T00:35:56.904Z,75.09
2018-07-07T00:36:56.926Z,74.90
2018-07-07T00:37:56.941Z,75.37
2018-07-07T00:38:56.959Z,75.18
2018-07-07T00:39:56.977Z,74.99
2018-07-07T00:40:56.994Z,74.13
2018-07-07T00:41:57.020Z,74.17
2018-07-07T00:42:57.034Z,73.88
2018-07-07T00:43:57.056Z,72.55
2018-07-07T00:44:57.081Z,72.83
2018-07-07T00:45:57.096Z,73.69
2018-07-07T00:46:57.113Z,73.50
2018-07-07T00:47:57.126Z,72.11
2018-07-07T00:48:57.154Z,71.72
2018-07-07T00:49:57.166Z,71.44
2018-07-07T00:50:57.183Z,71.53
2018-07-07T00:51:57.199Z,72.30
2018-07-07T00:52:57.223Z,72.64
2018-07-07T00:53:57.239Z,73.03
2018-07-07T00:54:57.261Z,72.45
2018-07-07T00:55:57.274Z,73.22
2018-07-07T00:56:57.293Z,73.75
2018-07-07T00:57:57.318Z,73.69
2018-07-07T00:58:57.331Z,72.83
2018-07-07T00:59:57.349Z,73.41
2018-07-07T01:00:57.373Z,74.23
2018-07-07T01:01:57.395Z,74.23
2018-07-07T01:02:57.409Z,73.88
2018-07-07T01:03:57.424Z,73.79
2018-07-07T01:04:57.441Z,73.47
2018-07-07T01:05:57.460Z,73.50
2018-07-07T01:06:57.483Z,73.98
2018-07-07T01:07:57.507Z,73.32
2018-07-07T01:08:57.518Z,72.45
2018-07-07T01:09:57.537Z,72.45
2018-07-07T01:10:57.555Z,72.83
2018-07-07T01:11:57.575Z,72.80
2018-07-07T01:12:57.590Z,73.75
2018-07-07T01:13:57.607Z,74.10
2018-07-07T01:14:57.632Z,74.99
2018-07-07T01:15:57.644Z,74.57
2018-07-07T01:16:57.662Z,75.53
2018-07-07T01:17:57.693Z,75.72
2018-07-07T01:18:57.707Z,75.53
2018-07-07T01:19:57.721Z,75.34
2018-07-07T01:20:57.746Z,74.99
2018-07-07T01:21:57.758Z,74.80
2018-07-07T01:22:57.781Z,75.05
2018-07-07T01:23:57.790Z,74.42
2018-07-07T01:24:57.818Z,74.29
2018-07-07T01:25:57.827Z,74.57
2018-07-07T01:26:57.864Z,75.43
2018-07-07T01:27:57.864Z,75.34
2018-07-07T01:28:57.884Z,75.91
2018-07-07T01:29:57.905Z,75.53
2018-07-07T01:30:57.923Z,75.72
2018-07-07T01:31:57.949Z,74.77
2018-07-07T01:32:57.963Z,75.05
2018-07-07T01:33:57.978Z,74.96
2018-07-07T01:34:58.001Z,74.77
2018-07-07T01:35:58.018Z,74.86
2018-07-07T01:36:58.039Z,75.15
2018-07-07T01:37:58.053Z,75.24
2018-07-07T01:38:58.073Z,74.86
2018-07-07T01:39:58.090Z,74.67
2018-07-07T01:40:58.117Z,74.86
2018-07-07T01:41:58.133Z,74.86
2018-07-07T01:42:58.149Z,74.67
2018-07-07T01:43:58.168Z,74.77
2018-07-07T01:44:58.190Z,75.05
2018-07-07T01:45:58.215Z,75.34
2018-07-07T01:46:58.217Z,75.62
2018-07-07T01:47:58.235Z,75.72
2018-07-07T01:48:58.250Z,76.01
2018-07-07T01:49:58.272Z,75.43
2018-07-07T01:50:58.287Z,74.48
2018-07-07T01:51:58.304Z,74.38
2018-07-07T01:52:58.331Z,74.29
2018-07-07T01:53:58.347Z,74.38
2018-07-07T01:54:58.361Z,74.67
2018-07-07T01:55:58.390Z,75.78
2018-07-07T01:56:58.397Z,75.59
2018-07-07T01:57:58.433Z,75.78
2018-07-07T01:58:58.436Z,76.25
2018-07-07T01:59:58.453Z,76.73
2018-07-07T02:00:58.469Z,77.45
2018-07-07T02:01:58.488Z,77.64
2018-07-07T02:02:58.511Z,77.83
2018-07-07T02:03:58.525Z,77.93
2018-07-07T02:04:58.544Z,78.22
2018-07-07T02:05:58.564Z,78.22
2018-07-07T02:06:58.596Z,77.59
2018-07-07T02:07:58.596Z,76.92
2018-07-07T02:08:58.619Z,76.82
2018-07-07T02:09:58.636Z,77.11
2018-07-07T02:10:58.661Z,76.82
2018-07-07T02:11:58.668Z,75.81
2018-07-07T02:12:58.694Z,75.87
2018-07-07T02:13:58.708Z,76.10
2018-07-07T02:14:58.728Z,75.91
2018-07-07T02:15:58.770Z,75.87
2018-07-07T02:16:58.765Z,76.35
2018-07-07T02:17:58.783Z,77.20
2018-07-07T02:18:58.793Z,76.64
2018-07-07T02:19:58.817Z,77.11
2018-07-07T02:20:58.841Z,77.11
2018-07-07T02:21:58.856Z,77.36
2018-07-07T02:22:58.874Z,77.93
2018-07-07T02:23:58.890Z,78.31
2018-07-07T02:24:58.909Z,79.07
2018-07-07T02:25:58.924Z,78.44
2018-07-07T02:26:58.945Z,77.83
2018-07-07T02:27:58.962Z,78.25
2018-07-07T02:28:58.983Z,78.25
2018-07-07T02:29:58.995Z,78.06
2018-07-07T02:30:59.021Z,78.22
2018-07-07T02:31:59.031Z,78.98
2018-07-07T02:32:59.060Z,78.41
2018-07-07T02:33:59.074Z,77.93
2018-07-07T02:34:59.088Z,78.31
2018-07-07T02:35:59.107Z,78.69
2018-07-07T02:36:59.132Z,78.78
2018-07-07T02:37:59.146Z,79.46
2018-07-07T02:38:59.157Z,79.36
2018-07-07T02:39:59.177Z,78.50
2018-07-07T02:40:59.193Z,79.46
2018-07-07T02:41:59.216Z,79.27
2018-07-07T02:42:59.241Z,79.07
2018-07-07T02:43:59.249Z,78.78
2018-07-07T02:44:59.271Z,77.87
2018-07-07T02:45:59.290Z,77.93
2018-07-07T02:46:59.300Z,78.59
2018-07-07T02:47:59.321Z,79.07
2018-07-07T02:48:59.335Z,79.17
2018-07-07T02:49:59.359Z,79.27
2018-07-07T02:50:59.380Z,79.74
2018-07-07T02:51:59.390Z,79.74
2018-07-07T02:52:59.408Z,79.83
2018-07-07T02:53:59.429Z,79.93
2018-07-07T02:54:59.453Z,80.22
2018-07-07T02:55:59.469Z,80.31
2018-07-07T02:56:59.478Z,79.64
2018-07-07T02:57:59.504Z,79.74
2018-07-07T02:58:59.516Z,79.36
2018-07-07T02:59:59.549Z,79.27
2018-07-07T03:00:59.554Z,78.03
2018-07-07T03:01:59.575Z,78.25
2018-07-07T03:02:59.607Z,78.06
2018-07-07T03:03:59.609Z,77.97
2018-07-07T03:04:59.627Z,78.22
2018-07-07T03:05:59.642Z,79.07
2018-07-07T03:06:59.679Z,79.55
2018-07-07T03:07:59.682Z,79.83
2018-07-07T03:08:59.701Z,80.12
2018-07-07T03:09:59.725Z,80.41
2018-07-07T03:10:59.730Z,80.69
2018-07-07T03:11:59.761Z,80.55
2018-07-07T03:12:59.780Z,81.03
2018-07-07T03:13:59.795Z,81.32
2018-07-07T03:14:59.863Z,81.79
2018-07-07T03:15:59.824Z,81.13
2018-07-07T03:16:59.837Z,81.23
2018-07-07T03:17:59.861Z,81.03
2018-07-07T03:18:59.875Z,80.79
2018-07-07T03:19:59.897Z,80.94
2018-07-07T03:20:59.912Z,81.03
2018-07-07T03:21:59.936Z,80.94
2018-07-07T03:22:59.949Z,81.03
2018-07-07T03:23:59.978Z,81.03
2018-07-07T03:24:59.990Z,80.50
2018-07-07T03:26:00.001Z,81.03
2018-07-07T03:27:00.117Z,81.03
2018-07-07T03:28:00.053Z,80.46
2018-07-07T03:29:00.056Z,80.65
2018-07-07T03:30:00.080Z,80.84
2018-07-07T03:31:00.115Z,81.23
2018-07-07T03:32:00.120Z,81.41
2018-07-07T03:33:00.151Z,81.41
2018-07-07T03:34:00.172Z,81.23
2018-07-07T03:35:00.199Z,81.03
2018-07-07T03:36:00.178Z,81.41
2018-07-07T03:37:00.195Z,80.84
2018-07-07T03:38:00.253Z,80.88
2018-07-07T03:39:00.232Z,81.23
2018-07-07T03:40:00.257Z,81.41
2018-07-07T03:41:00.309Z,80.79
2018-07-07T03:42:00.284Z,80.98
2018-07-07T03:43:00.318Z,80.31
2018-07-07T03:44:00.338Z,79.83
2018-07-07T03:45:00.338Z,79.74
2018-07-07T03:46:00.358Z,79.83
2018-07-07T03:47:00.380Z,80.12
2018-07-07T03:48:00.392Z,80.31
2018-07-07T03:49:00.410Z,80.22
2018-07-07T03:50:00.427Z,80.12
2018-07-07T03:51:00.449Z,80.22
2018-07-07T03:52:00.461Z,80.69
2018-07-07T03:53:00.487Z,80.60
2018-07-07T03:54:00.500Z,80.02
2018-07-07T03:55:00.522Z,80.02
2018-07-07T03:56:00.534Z,80.50
2018-07-07T03:57:00.564Z,80.22
2018-07-07T03:58:00.573Z,79.93
2018-07-07T03:59:00.611Z,79.64
2018-07-07T04:00:00.608Z,79.11
2018-07-07T04:01:00.633Z,78.44
2018-07-07T04:02:00.646Z,78.06
2018-07-07T04:03:00.666Z,77.44
2018-07-07T04:04:00.679Z,76.48
2018-07-07T04:05:00.699Z,76.29
2018-07-07T04:06:00.716Z,75.76
2018-07-07T04:07:00.734Z,75.62
2018-07-07T04:08:00.750Z,75.18
2018-07-07T04:09:00.769Z,74.99
2018-07-07T04:10:00.790Z,74.52
2018-07-07T04:11:00.803Z,74.32
2018-07-07T04:12:00.820Z,73.75
2018-07-07T04:13:00.855Z,74.67
2018-07-07T04:14:00.877Z,75.72
2018-07-07T04:15:00.909Z,76.01
2018-07-07T04:16:00.897Z,76.67
2018-07-07T04:17:00.917Z,77.30
2018-07-07T04:18:00.928Z,77.87
2018-07-07T04:19:00.949Z,78.44
2018-07-07T04:20:01.029Z,77.78
2018-07-07T04:21:01.008Z,79.02
2018-07-07T04:22:01.003Z,78.92
2018-07-07T04:23:01.021Z,79.49
2018-07-07T04:24:01.042Z,79.30
2018-07-07T04:25:01.062Z,78.54
2018-07-07T04:26:01.092Z,79.02
2018-07-07T04:27:01.099Z,79.40
2018-07-07T04:28:01.113Z,78.20
2018-07-07T04:29:01.130Z,78.83
2018-07-07T04:30:01.152Z,78.20
2018-07-07T04:31:01.169Z,78.20
2018-07-07T04:32:01.198Z,77.91
2018-07-07T04:33:01.211Z,77.53
2018-07-07T04:34:01.224Z,77.00
2018-07-07T04:35:01.243Z,75.76
2018-07-07T04:36:01.270Z,76.46
2018-07-07T04:37:01.280Z,74.93
2018-07-07T04:38:01.296Z,74.65
2018-07-07T04:39:01.311Z,74.84
2018-07-07T04:40:01.329Z,75.32
2018-07-07T04:41:01.353Z,76.04
2018-07-07T04:42:01.386Z,76.33
2018-07-07T04:43:01.387Z,75.95
2018-07-07T04:44:01.411Z,76.23
2018-07-07T04:45:01.427Z,75.76
2018-07-07T04:46:01.470Z,76.52
2018-07-07T04:47:01.473Z,76.14
2018-07-07T04:48:01.478Z,76.08
2018-07-07T04:49:01.505Z,76.75
2018-07-07T04:50:01.526Z,76.37
2018-07-07T04:51:01.542Z,76.37
2018-07-07T04:52:01.559Z,75.70
2018-07-07T04:53:01.598Z,75.54
2018-07-07T04:54:01.596Z,75.74
2018-07-07T04:55:01.610Z,75.64
2018-07-07T04:56:01.634Z,75.10
2018-07-07T04:57:01.658Z,73.96
2018-07-07T04:58:01.668Z,74.05
2018-07-07T04:59:01.689Z,73.04
2018-07-07T05:00:01.710Z,71.11
2018-07-07T05:01:01.725Z,68.94
2018-07-07T05:02:01.751Z,67.72
2018-07-07T05:03:01.779Z,66.71
2018-07-07T05:04:01.788Z,65.30
2018-07-07T05:05:01.810Z,63.00
2018-07-07T05:06:01.841Z,62.45
2018-07-07T05:07:01.856Z,60.57
2018-07-07T05:08:01.881Z,59.16
2018-07-07T05:09:01.907Z,58.80
2018-07-07T05:10:01.920Z,56.98
2018-07-07T05:11:01.943Z,56.62
2018-07-07T05:12:01.965Z,55.11
2018-07-07T05:13:02.006Z,54.08
2018-07-07T05:14:02.014Z,54.05
2018-07-07T05:15:02.046Z,54.08
2018-07-07T05:16:02.063Z,53.78
2018-07-07T05:17:02.087Z,52.56
2018-07-07T05:18:02.109Z,51.34
2018-07-07T05:19:02.130Z,53.03
2018-07-07T05:20:02.163Z,47.55
2018-07-07T05:21:02.182Z,44.29
2018-07-07T05:22:02.215Z,46.06
2018-07-07T05:23:02.235Z,47.99
2018-07-07T05:24:02.266Z,48.06
2018-07-07T05:25:02.288Z,48.21
2018-07-07T05:26:02.311Z,47.14
2018-07-07T05:27:02.339Z,47.92
2018-07-07T05:28:02.365Z,47.75
2018-07-07T05:29:02.398Z,47.16
2018-07-07T05:30:02.427Z,43.37
2018-07-07T05:31:02.443Z,41.29
2018-07-07T05:32:02.499Z,43.28
2018-07-07T05:33:02.499Z,42.83
2018-07-07T05:34:02.684Z,42.79
2018-07-07T05:35:02.560Z,42.89
2018-07-07T05:36:02.587Z,44.59
2018-07-07T05:37:02.613Z,46.20
2018-07-07T05:38:02.649Z,46.61
2018-07-07T05:39:02.661Z,47.27
2018-07-07T05:40:02.685Z,46.71
2018-07-07T05:41:02.715Z,46.51
2018-07-07T05:42:02.744Z,46.54
2018-07-07T05:43:02.771Z,46.25
2018-07-07T05:44:02.803Z,47.85
2018-07-07T05:45:02.819Z,47.96
2018-07-07T05:46:02.853Z,46.85
2018-07-07T05:47:02.882Z,47.60
2018-07-07T05:48:02.908Z,46.95
2018-07-07T05:49:02.935Z,46.47
2018-07-07T05:50:03.038Z,46.32
2018-07-07T05:51:02.986Z,46.88
2018-07-07T05:52:03.021Z,46.56
2018-07-07T05:53:03.040Z,46.39
2018-07-07T05:54:03.075Z,46.68
2018-07-07T05:55:03.098Z,47.24
2018-07-07T05:56:03.133Z,48.57
2018-07-07T05:57:03.154Z,48.23
2018-07-07T05:58:03.186Z,47.04
2018-07-07T05:59:03.215Z,46.26
2018-07-07T06:00:03.238Z,44.76
2018-07-07T06:01:03.273Z,43.35
2018-07-07T06:02:03.298Z,43.26
2018-07-07T06:03:03.325Z,42.86
2018-07-07T06:04:03.355Z,43.18
2018-07-07T06:05:03.381Z,43.18
2018-07-07T06:06:03.415Z,43.26
2018-07-07T06:07:03.473Z,43.74
2018-07-07T06:08:03.467Z,43.76
2018-07-07T06:09:03.510Z,42.10
2018-07-07T06:10:03.530Z,40.31
2018-07-07T06:11:03.554Z,38.87
2018-07-07T06:12:03.588Z,38.67
2018-07-07T06:13:03.618Z,38.38
2018-07-07T06:14:03.645Z,39.62
2018-07-07T06:15:03.674Z,40.48
2018-07-07T06:16:03.704Z,41.42
2018-07-07T06:17:03.736Z,41.93
2018-07-07T06:18:03.769Z,40.52
2018-07-07T06:19:03.791Z,39.18
2018-07-07T06:20:03.867Z,40.09
2018-07-07T06:21:03.849Z,43.18
2018-07-07T06:22:03.882Z,43.12
2018-07-07T06:23:03.903Z,44.09
2018-07-07T06:24:03.937Z,42.49
2018-07-07T06:25:03.972Z,40.80
2018-07-07T06:26:03.993Z,39.16
2018-07-07T06:27:04.028Z,39.78
2018-07-07T06:28:04.054Z,37.81
2018-07-07T06:29:04.091Z,38.28
2018-07-07T06:30:04.113Z,39.18
2018-07-07T06:31:04.135Z,39.98
2018-07-07T06:32:04.168Z,41.78
2018-07-07T06:33:04.193Z,40.50
2018-07-07T06:34:04.230Z,39.26
2018-07-07T06:35:04.248Z,39.80
2018-07-07T06:36:04.299Z,40.29
2018-07-07T06:37:04.320Z,40.47
2018-07-07T06:38:04.339Z,40.66
2018-07-07T06:39:04.376Z,41.14
2018-07-07T06:40:04.394Z,41.24
2018-07-07T06:41:04.445Z,40.33
2018-07-07T06:42:04.458Z,38.02
2018-07-07T06:43:04.487Z,36.68
2018-07-07T06:44:04.511Z,36.49
2018-07-07T06:45:04.558Z,36.49
2018-07-07T06:46:04.571Z,37.58
2018-07-07T06:47:04.608Z,38.12
2018-07-07T06:48:04.623Z,37.23
2018-07-07T06:49:04.660Z,38.20
2018-07-07T06:50:04.683Z,37.83
2018-07-07T06:51:04.711Z,38.26
2018-07-07T06:52:04.744Z,38.40
2018-07-07T06:53:04.775Z,37.17
2018-07-07T06:54:04.900Z,36.65
2018-07-07T06:55:04.829Z,37.97
2018-07-07T06:56:04.879Z,38.38
2018-07-07T06:57:04.893Z,37.99
2018-07-07T06:58:04.927Z,38.28
2018-07-07T06:59:04.952Z,38.18
2018-07-07T07:00:05.048Z,37.37
2018-07-07T07:01:05.009Z,35.35
2018-07-07T07:02:05.049Z,35.43
2018-07-07T07:03:05.067Z,35.17
2018-07-07T07:04:05.111Z,34.47
2018-07-07T07:05:05.128Z,35.71
2018-07-07T07:06:05.171Z,35.51
2018-07-07T07:07:05.194Z,35.22
2018-07-07T07:08:05.215Z,35.14
2018-07-07T07:09:05.259Z,34.39
2018-07-07T07:10:05.289Z,35.35
2018-07-07T07:11:05.309Z,35.49
2018-07-07T07:12:05.367Z,35.45
2018-07-07T07:13:05.367Z,37.68
2018-07-07T07:14:05.396Z,38.65
2018-07-07T07:15:05.427Z,37.15
2018-07-07T07:16:05.466Z,35.22
2018-07-07T07:17:05.494Z,34.70
2018-07-07T07:18:05.517Z,32.95
2018-07-07T07:19:05.546Z,35.38
2018-07-07T07:20:05.582Z,37.89
2018-07-07T07:21:05.624Z,38.28
2018-07-07T07:22:05.634Z,37.19
2018-07-07T07:23:05.679Z,35.61
2018-07-07T07:24:05.701Z,37.45
2018-07-07T07:25:05.727Z,39.04
2018-07-07T07:26:05.839Z,37.05
2018-07-07T07:27:05.797Z,37.99
2018-07-07T07:28:05.834Z,36.51
2018-07-07T07:29:05.853Z,34.31
2018-07-07T07:30:05.880Z,33.05
2018-07-07T07:31:05.908Z,33.31
2018-07-07T07:32:05.936Z,33.14
2018-07-07T07:33:06.041Z,32.32
2018-07-07T07:34:05.990Z,30.10
2018-07-07T07:35:06.027Z,29.83
2018-07-07T07:36:06.051Z,30.94
2018-07-07T07:37:06.078Z,32.55
2018-07-07T07:38:06.113Z,33.69
2018-07-07T07:39:06.145Z,33.43
2018-07-07T07:40:06.183Z,33.69
2018-07-07T07:41:06.227Z,33.53
2018-07-07T07:42:06.241Z,32.97
2018-07-07T07:43:06.268Z,31.93
2018-07-07T07:44:06.298Z,31.34
2018-07-07T07:45:06.331Z,32.35
2018-07-07T07:46:06.368Z,32.66
2018-07-07T07:47:06.386Z,32.82
2018-07-07T07:48:06.422Z,32.22
2018-07-07T07:49:06.457Z,31.14
2018-07-07T07:50:06.481Z,31.24
2018-07-07T07:51:06.506Z,29.93
2018-07-07T07:52:06.543Z,29.83
2018-07-07T07:53:06.596Z,31.04
2018-07-07T07:54:06.606Z,31.19
2018-07-07T07:55:06.631Z,29.77
2018-07-07T07:56:06.662Z,30.07
2018-07-07T07:57:06.694Z,31.29
2018-07-07T07:58:06.723Z,32.29
2018-07-07T07:59:06.900Z,30.82
2018-07-07T08:00:06.791Z,31.99
2018-07-07T08:01:06.844Z,30.30
2018-07-07T08:02:06.856Z,30.27
2018-07-07T08:03:06.879Z,29.73
2018-07-07T08:04:06.919Z,29.98
2018-07-07T08:05:06.945Z,29.62
2018-07-07T08:06:06.976Z,29.82
2018-07-07T08:07:07.006Z,29.59
2018-07-07T08:08:07.044Z,30.83
2018-07-07T08:09:07.085Z,31.57
2018-07-07T08:10:07.097Z,31.96
2018-07-07T08:11:07.132Z,31.24
2018-07-07T08:12:07.153Z,29.98
2018-07-07T08:13:07.186Z,29.68
2018-07-07T08:14:07.245Z,31.21
2018-07-07T08:15:07.251Z,29.79
2018-07-07T08:16:07.276Z,28.55
2018-07-07T08:17:07.320Z,27.67
2018-07-07T08:18:07.341Z,29.79
2018-07-07T08:19:07.371Z,29.60
2018-07-07T08:20:07.407Z,29.31
2018-07-07T08:21:07.437Z,29.14
2018-07-07T08:22:07.487Z,27.46
2018-07-07T08:23:07.495Z,29.49
2018-07-07T08:24:07.526Z,29.59
2018-07-07T08:25:07.554Z,30.16
2018-07-07T08:26:07.587Z,30.71
2018-07-07T08:27:07.626Z,30.16
2018-07-07T08:28:07.647Z,30.15
2018-07-07T08:29:07.677Z,29.97
2018-07-07T08:30:07.706Z,31.00
2018-07-07T08:31:07.735Z,31.29
2018-07-07T08:32:07.758Z,30.25
2018-07-07T08:33:07.797Z,29.79
2018-07-07T08:34:07.839Z,29.21
2018-07-07T08:35:07.854Z,29.39
2018-07-07T08:36:07.890Z,29.77
2018-07-07T08:37:07.922Z,31.20
2018-07-07T08:38:07.934Z,31.75
2018-07-07T08:39:07.972Z,31.39
2018-07-07T08:40:07.988Z,31.10
2018-07-07T08:41:08.013Z,31.75
2018-07-07T08:42:08.092Z,31.77
2018-07-07T08:43:08.072Z,31.92
2018-07-07T08:44:08.107Z,32.40
2018-07-07T08:45:08.127Z,34.39
2018-07-07T08:46:08.153Z,35.25
2018-07-07T08:47:08.178Z,36.10
2018-07-07T08:48:08.205Z,36.96
2018-07-07T08:49:08.238Z,36.67
2018-07-07T08:50:08.256Z,35.53
2018-07-07T08:51:08.282Z,35.52
2018-07-07T08:52:08.318Z,37.08
2018-07-07T08:53:08.336Z,36.57
2018-07-07T08:54:08.368Z,37.04
2018-07-07T08:55:08.389Z,36.07
2018-07-07T08:56:08.411Z,36.83
2018-07-07T08:57:08.439Z,38.73
2018-07-07T08:58:08.466Z,38.64
2018-07-07T08:59:08.490Z,39.22
2018-07-07T09:00:08.519Z,39.11
2018-07-07T09:01:08.538Z,39.76
2018-07-07T09:02:08.624Z,40.42
2018-07-07T09:03:08.584Z,41.27
2018-07-07T09:04:08.621Z,42.05
2018-07-07T09:05:08.636Z,41.02
2018-07-07T09:06:08.663Z,40.92
2018-07-07T09:07:08.692Z,40.71
2018-07-07T09:08:08.716Z,41.68
2018-07-07T09:09:08.734Z,42.17
2018-07-07T09:10:08.766Z,41.97
2018-07-07T09:11:08.783Z,40.36
2018-07-07T09:12:08.812Z,40.08
2018-07-07T09:13:08.838Z,40.17
2018-07-07T09:14:08.918Z,40.17
2018-07-07T09:15:08.884Z,40.92
2018-07-07T09:16:08.914Z,40.34
2018-07-07T09:17:08.930Z,41.22
2018-07-07T09:18:08.961Z,39.69
2018-07-07T09:19:08.979Z,39.88
2018-07-07T09:20:09.035Z,39.80
2018-07-07T09:21:09.047Z,39.32
2018-07-07T09:22:09.080Z,39.32
2018-07-07T09:23:09.075Z,38.56
2018-07-07T09:24:09.099Z,38.75
2018-07-07T09:25:09.132Z,38.06
2018-07-07T09:26:09.194Z,39.20
2018-07-07T09:27:09.176Z,38.52
2018-07-07T09:28:09.199Z,39.01
2018-07-07T09:29:09.224Z,38.73
2018-07-07T09:30:09.262Z,38.50
2018-07-07T09:31:09.273Z,39.67
2018-07-07T09:32:09.295Z,39.01
2018-07-07T09:33:09.319Z,39.01
2018-07-07T09:34:09.353Z,39.65
2018-07-07T09:35:09.374Z,40.33
2018-07-07T09:36:09.447Z,41.58
2018-07-07T09:37:09.418Z,40.23
2018-07-07T09:38:09.458Z,40.54
2018-07-07T09:39:09.467Z,40.71
2018-07-07T09:40:09.492Z,40.15
2018-07-07T09:41:09.513Z,40.81
2018-07-07T09:42:09.541Z,40.89
2018-07-07T09:43:09.565Z,40.44
2018-07-07T09:44:09.663Z,40.54
2018-07-07T09:45:09.609Z,40.33
2018-07-07T09:46:09.644Z,41.20
2018-07-07T09:47:09.661Z,41.49
2018-07-07T09:48:09.688Z,40.66
2018-07-07T09:49:09.712Z,40.15
2018-07-07T09:50:09.737Z,40.71
2018-07-07T09:51:09.756Z,40.23
2018-07-07T09:52:09.785Z,40.33
2018-07-07T09:53:09.804Z,41.66
2018-07-07T09:54:09.835Z,41.66
2018-07-07T09:55:09.860Z,41.68
2018-07-07T09:56:09.980Z,40.64
2018-07-07T09:57:09.906Z,39.90
2018-07-07T09:58:09.928Z,39.78
2018-07-07T09:59:09.952Z,40.08
2018-07-07T10:00:09.974Z,39.49
2018-07-07T10:01:09.998Z,40.73
2018-07-07T10:02:10.026Z,41.02
2018-07-07T10:03:10.049Z,41.12
2018-07-07T10:04:10.070Z,40.54
2018-07-07T10:05:10.095Z,41.12
2018-07-07T10:06:10.117Z,41.12
2018-07-07T10:07:10.143Z,41.22
2018-07-07T10:08:10.165Z,40.75
2018-07-07T10:09:10.189Z,39.69
2018-07-07T10:10:10.216Z,39.59
2018-07-07T10:11:10.241Z,40.64
2018-07-07T10:12:10.263Z,41.88
2018-07-07T10:13:10.288Z,40.64
2018-07-07T10:14:10.311Z,41.51
2018-07-07T10:15:10.332Z,41.88
2018-07-07T10:16:10.363Z,42.36
2018-07-07T10:17:10.387Z,41.49
2018-07-07T10:18:10.409Z,40.64
2018-07-07T10:19:10.427Z,41.47
2018-07-07T10:20:10.456Z,42.36
2018-07-07T10:21:10.476Z,41.51
2018-07-07T10:22:10.504Z,41.61
2018-07-07T10:23:10.524Z,41.49
2018-07-07T10:24:10.548Z,42.26
2018-07-07T10:25:10.577Z,42.38
2018-07-07T10:26:10.610Z,41.63
2018-07-07T10:27:10.620Z,40.77
2018-07-07T10:28:10.642Z,40.19
2018-07-07T10:29:10.667Z,39.82
2018-07-07T10:30:10.692Z,40.39
2018-07-07T10:31:10.715Z,40.92
2018-07-07T10:32:10.743Z,41.41
2018-07-07T10:33:10.763Z,41.99
2018-07-07T10:34:10.791Z,41.51
2018-07-07T10:35:10.823Z,42.07
2018-07-07T10:36:10.841Z,42.36
2018-07-07T10:37:10.862Z,42.24
2018-07-07T10:38:10.912Z,41.89
2018-07-07T10:39:10.905Z,42.19
2018-07-07T10:40:10.942Z,41.51
2018-07-07T10:41:10.957Z,41.61
2018-07-07T10:42:10.983Z,40.56
2018-07-07T10:43:11.012Z,40.66
2018-07-07T10:44:11.045Z,40.64
2018-07-07T10:45:11.068Z,40.92
2018-07-07T10:46:11.161Z,40.36
2018-07-07T10:47:11.106Z,40.46
2018-07-07T10:48:11.130Z,41.14
2018-07-07T10:49:11.174Z,41.24
2018-07-07T10:50:11.193Z,40.97
2018-07-07T10:51:11.206Z,40.75
2018-07-07T10:52:11.232Z,41.02
2018-07-07T10:53:11.262Z,41.53
2018-07-07T10:54:11.269Z,40.56
2018-07-07T10:55:11.309Z,40.66
2018-07-07T10:56:11.321Z,41.70
2018-07-07T10:57:11.343Z,41.72
2018-07-07T10:58:11.374Z,40.75
2018-07-07T10:59:11.394Z,40.08
2018-07-07T11:00:11.421Z,40.46
2018-07-07T11:01:11.439Z,39.78
2018-07-07T11:02:11.467Z,40.34
2018-07-07T11:03:11.507Z,40.92
2018-07-07T11:04:11.528Z,40.44
2018-07-07T11:05:11.533Z,40.08
2018-07-07T11:06:11.557Z,40.05
2018-07-07T11:07:11.581Z,41.41
2018-07-07T11:08:11.604Z,41.22
2018-07-07T11:09:11.651Z,41.80
2018-07-07T11:10:11.661Z,41.33
2018-07-07T11:11:11.679Z,40.66
2018-07-07T11:12:11.779Z,40.92
2018-07-07T11:13:11.729Z,41.33
2018-07-07T11:14:11.752Z,41.82
2018-07-07T11:15:11.772Z,39.90
2018-07-07T11:16:11.804Z,39.41
2018-07-07T11:17:11.832Z,39.69
2018-07-07T11:18:11.845Z,40.73
2018-07-07T11:19:11.867Z,40.46
2018-07-07T11:20:11.896Z,40.29
2018-07-07T11:21:11.938Z,40.66
2018-07-07T11:22:11.962Z,40.75
2018-07-07T11:23:11.965Z,40.29
2018-07-07T11:24:11.991Z,40.19
2018-07-07T11:25:12.010Z,39.61
2018-07-07T11:26:12.040Z,40.19
2018-07-07T11:27:12.058Z,39.12
2018-07-07T11:28:12.090Z,39.67
2018-07-07T11:29:12.112Z,40.34
2018-07-07T11:30:12.131Z,40.44
2018-07-07T11:31:12.156Z,40.33
2018-07-07T11:32:12.183Z,40.44
2018-07-07T11:33:12.201Z,41.12
2018-07-07T11:34:12.233Z,40.34
2018-07-07T11:35:12.249Z,39.61
2018-07-07T11:36:12.326Z,39.22
2018-07-07T11:37:12.310Z,39.03
2018-07-07T11:38:12.328Z,38.85
2018-07-07T11:39:12.351Z,38.07
2018-07-07T11:40:12.378Z,37.49
2018-07-07T11:41:12.396Z,38.17
2018-07-07T11:42:12.439Z,37.20
2018-07-07T11:43:12.440Z,38.07
2018-07-07T11:44:12.472Z,36.73
2018-07-07T11:45:12.493Z,36.93
2018-07-07T11:46:12.521Z,36.93
2018-07-07T11:47:12.543Z,37.10
2018-07-07T11:48:12.564Z,36.81
2018-07-07T11:49:12.587Z,37.49
2018-07-07T11:50:12.681Z,37.86
2018-07-07T11:51:12.651Z,38.15
2018-07-07T11:52:12.668Z,37.01
2018-07-07T11:53:12.685Z,37.88
2018-07-07T11:54:12.713Z,36.93
2018-07-07T11:55:12.736Z,37.01
2018-07-07T11:56:12.764Z,37.76
2018-07-07T11:57:12.839Z,38.37
2018-07-07T11:58:12.805Z,37.76
2018-07-07T11:59:12.831Z,37.74
2018-07-07T12:00:12.868Z,37.96
2018-07-07T12:01:12.888Z,39.18
2018-07-07T12:02:12.902Z,39.76
2018-07-07T12:03:12.928Z,39.86
2018-07-07T12:04:12.961Z,39.29
2018-07-07T12:05:12.976Z,38.91
2018-07-07T12:06:13.024Z,39.29
2018-07-07T12:07:13.018Z,38.81
2018-07-07T12:08:14.254Z,39.22
2018-07-07T12:09:13.096Z,38.17
2018-07-07T12:10:13.115Z,37.12
2018-07-07T12:11:13.173Z,37.66
2018-07-07T12:12:13.144Z,38.62
2018-07-07T12:13:13.241Z,38.62
2018-07-07T12:14:13.190Z,38.64
2018-07-07T12:15:13.238Z,38.34
2018-07-07T12:16:13.247Z,38.34
2018-07-07T12:17:13.283Z,37.96
2018-07-07T12:18:13.295Z,37.96
2018-07-07T12:19:13.317Z,37.37
2018-07-07T12:20:13.340Z,38.17
2018-07-07T12:21:13.366Z,37.39
2018-07-07T12:22:13.393Z,37.66
2018-07-07T12:23:13.423Z,37.59
2018-07-07T12:24:13.439Z,37.01
2018-07-07T12:25:13.467Z,38.25
2018-07-07T12:26:13.502Z,38.93
2018-07-07T12:27:13.509Z,39.03
2018-07-07T12:28:13.531Z,38.17
2018-07-07T12:29:13.555Z,37.78
2018-07-07T12:30:13.580Z,37.39
2018-07-07T12:31:13.658Z,37.47
2018-07-07T12:32:13.628Z,38.34
2018-07-07T12:33:13.650Z,37.68
2018-07-07T12:34:13.680Z,37.18
2018-07-07T12:35:13.695Z,37.47
2018-07-07T12:36:13.722Z,38.25
2018-07-07T12:37:13.753Z,37.68
2018-07-07T12:38:13.781Z,37.96
2018-07-07T12:39:13.800Z,37.76
2018-07-07T12:40:13.821Z,38.27
2018-07-07T12:41:13.861Z,38.17
2018-07-07T12:42:13.879Z,37.32
2018-07-07T12:43:13.896Z,36.94
2018-07-07T12:44:13.921Z,36.46
2018-07-07T12:45:13.939Z,36.63
2018-07-07T12:46:13.967Z,36.73
2018-07-07T12:47:14.000Z,37.70
2018-07-07T12:48:14.016Z,36.81
2018-07-07T12:49:14.044Z,36.73
2018-07-07T12:50:14.063Z,36.65
2018-07-07T12:51:14.099Z,36.16
2018-07-07T12:52:14.116Z,36.44
2018-07-07T12:53:14.140Z,35.80